Seabourn Spirit — C6FR4 — position and weather

sailwx.info

Track history (hours):
 
Tides and Currents Weather Stations Pressure Air Temp Water Temp Dewpoint Dewpoint Depression Visibility Wind Speed Wind Dir Waves Ship Positions

Seabourn Spirit

Operator: Cunard Seabourn

Last reported at 2019-Aug-15 15:14 UTC. Time now 2019-Aug-22 10:00 UTC.
Position N 65°14' W 013°21'.

Length 133 m; draft 5.7 m.

Type: Ship. MMSI: 311083000.

Date/timePositionNaut miles runAvg speedWind from/ knotsBaromVisibWave heightAir tempDewpointWater temp
2019-Aug-15 15:14N 65°14' W 013°21'411.2
2019-Aug-15 14:52N 65°10' W 013°19'510.6
2019-Aug-15 14:22N 65°05' W 013°19'410.0
2019-Aug-15 13:56N 65°01' W 013°20'410.1
2019-Aug-15 13:30N 64°56' W 013°21'510.2
2019-Aug-15 13:01N 64°52' W 013°26'510.3
2019-Aug-15 12:31N 64°48' W 013°32'510.7
2019-Aug-15 12:00N 64°43' W 013°39'16 9.5
2019-Aug-15 10:22N 64°30' W 013°59'  
Track history (hours):
 
Tides and Currents Weather Stations Pressure Air Temp Water Temp Dewpoint Dewpoint Depression Visibility Wind Speed Wind Dir Waves Ship Positions

Seabourn Spirit

Operator: Cunard Seabourn

Last reported at 2019-Aug-15 15:14 UTC. Time now 2019-Aug-22 10:00 UTC.
Position N 65°14' W 013°21'.

Length 133 m; draft 5.7 m.

Type: Ship. MMSI: 311083000.

Date/timePositionNaut miles runAvg speedWind from/ knotsBaromVisibWave heightAir tempDewpointWater temp
2019-Aug-15 15:14N 65°14' W 013°21'411.2
2019-Aug-15 14:52N 65°10' W 013°19'510.6
2019-Aug-15 14:22N 65°05' W 013°19'410.0
2019-Aug-15 13:56N 65°01' W 013°20'410.1
2019-Aug-15 13:30N 64°56' W 013°21'510.2
2019-Aug-15 13:01N 64°52' W 013°26'510.3
2019-Aug-15 12:31N 64°48' W 013°32'510.7
2019-Aug-15 12:00N 64°43' W 013°39'16 9.5
2019-Aug-15 10:22N 64°30' W 013°59'  

Dump ship's entire track history